LIBDLIEE

Guest
Details From LIBD - Bari Palese Macchie
To LIEE - Cagliari Elmas
Flight Number -
Tags generated
Created
Modified
Stats Distance 373 nm / 691 km
Max Altitude 34,000 ft / 10,363 m
Waypoints 9
Social Downloads 3
Likes 0
Share VATSIM

Download

Looking for another format? Having issues loading an existing format? Contact us
Advertisement - Login to hide

Notes

Basic altitude profile: - Ascent Rate: 2500ft/min - Ascent Speed: 250kts - Cruise Altitude: 35000ft - Cruise Speed: 420kts - Descent Rate: 1500ft/min - Descent Speed: 250kts Options: - Use NATs: no - Use PACOTS: no - Use low airways: yes - Use high airways: yes

Route

LIBD GALTI M603 SOR UM159 BELOK LIEE

ID Type Via Altitude Latitude Longitude Leg Dist Tot Dist Heading (true) Name
O LIBD APT - 0 ft / 0 m 41.13787˚ 16.75832˚ - 0 nm - Bari Palese Macchie
GALTI FIX - 30,900 ft / 9,418 m 40.64000˚ 14.89917˚ 89 nm 89 nm 251° / 250° -
SOR VOR M603 (AWY-LO) 18,500 ft / 5,639 m 40.58249˚ 14.33527˚ 25 nm 115 nm 263° / 262° SORRENTO VOR-DME
EDOPA FIX UM159 (AWY-HI) 34,000 ft / 10,363 m 40.42250˚ 13.76528˚ 27 nm 143 nm 250° / 250° -
TAGEL FIX UM159 (AWY-HI) 34,000 ft / 10,363 m 40.29778˚ 13.31111˚ 22 nm 165 nm 250° / 250° -
BEROL FIX UM159 (AWY-HI) 34,000 ft / 10,363 m 40.20472˚ 13.01306˚ 14 nm 180 nm 248° / 248° -
RONAB FIX UM159 (AWY-HI) 28,500 ft / 8,687 m 39.86972˚ 11.89111˚ 55 nm 235 nm 249° / 248° -
BELOK FIX UM159 (AWY-HI) 18,500 ft / 5,639 m 39.38972˚ 10.36083˚ 76 nm 311 nm 248° / 247° -
O LIEE APT - 0 ft / 0 m 39.25147˚ 9.05429˚ 61 nm 373 nm 263° / 262° Cagliari Elmas

Altitude Profile

Advertisement - Login to hide

Weather


0- 5 10 15 20 25 30 35+ Temperature / ° C

Clouds and Precipitation
Forecast for 2018-05-23 00:00 UTC. Updated 2 hours ago

Ground ~20,000 ft ~40,000 ft Winds

LIBD

Details ICAO LIBD (BRI)
Name Bari Palese Macchie
Region Italy
Timezone Europe/Rome (UTC+2.0)
Stats Elevation 177 ft / 54 m (AMSL)
Location 41.137865° 16.758318°
Runways 1
Magnetic Variation 3.782° E

METAR

LIBD 230120Z 21004KT 8000 FEW030 18/16 Q1013

Decode

TAF

TAF LIBD 222300Z 2300/2324 VRB06KT 9999 FEW030 TEMPO 2312/2318 TSRA

Decode

Departure Runways

ID Width Length Bearing (true) Bearing (mag) Surface Threshold Offset Overrun Length
07 148 ft / 45 m 9,262 ft / 2,823 m 69.39° 65.61° Asphalt 1,257 ft / 383 m 0 ft / 0 m
25 148 ft / 45 m 9,262 ft / 2,823 m 249.42° 245.64° Asphalt 0 ft / 0 m 194 ft / 59 m

LIEE

Details ICAO LIEE (CAG)
Name Cagliari Elmas
Region Italy
Timezone Europe/Rome (UTC+2.0)
Stats Elevation 13 ft / 4 m (AMSL)
Location 39.251475° 9.054291°
Runways 1
Magnetic Variation 2.342° E

METAR

LIEE 230050Z 36005KT 9999 FEW030 16/14 Q1016

Decode

TAF

TAF LIEE 222300Z 2300/2324 33010KT 9999 SCT030= TAF LIEO 222300Z 2300/2324 VRB06KT 9999 SCT030 BECMG 2310/2312 06010KT BECMG 2318/2320 VRB04KT

Decode

Destination Runways

ID Width Length Bearing (true) Bearing (mag) Surface Threshold Offset Overrun Length
14 148 ft / 45 m 9,157 ft / 2,791 m 138.08° 135.74° Asphalt 0 ft / 0 m 187 ft / 57 m
32 148 ft / 45 m 9,157 ft / 2,791 m 318.09° 315.75° Asphalt 0 ft / 0 m 0 ft / 0 m

Approach Navaids

Runway Type Ident Frequency Range Bearing (true) Bearing (mag) Slope Elevation
32 Localiser IEL 109.50 MHz 18 nm / 33 km 318.12° 315.77° - 7 ft / 2 m (AMSL)
32 Glidescope IEL 109.50 MHz 10 nm / 19 km 318.08° 315.74° 3.00° 9 ft / 3 m (AMSL)
32 DME IEL 109.50 MHz 18 nm / 33 km - - - 26 ft / 8 m (AMSL)

Popular Alternatives